createdAt,value
2023-05-06T00:00:19.180Z,3118.00
2023-05-06T00:01:19.261Z,3132.00
2023-05-06T00:02:19.419Z,3143.00
2023-05-06T00:03:19.545Z,3165.00
2023-05-06T00:04:19.475Z,3135.00
2023-05-06T00:05:19.528Z,3136.00
2023-05-06T00:06:19.720Z,3141.00
2023-05-06T00:07:19.668Z,3150.00
2023-05-06T00:08:19.751Z,3122.00
2023-05-06T00:09:19.813Z,3111.00
2023-05-06T00:10:19.873Z,3121.00
2023-05-06T00:11:19.938Z,3101.00
2023-05-06T00:12:20.036Z,3123.00
2023-05-06T00:13:20.196Z,3100.00
2023-05-06T00:14:20.182Z,3126.00
2023-05-06T00:15:20.257Z,3125.00
2023-05-06T00:16:20.391Z,3140.00
2023-05-06T00:17:20.413Z,3131.00
2023-05-06T00:18:20.467Z,3146.00
2023-05-06T00:19:20.873Z,3142.00
2023-05-06T00:20:20.988Z,3140.00
2023-05-06T00:21:20.699Z,3130.00
2023-05-06T00:22:20.797Z,3118.00
2023-05-06T00:23:20.793Z,3112.00
2023-05-06T00:24:20.899Z,3135.00
2023-05-06T00:25:20.979Z,3135.00
2023-05-06T00:26:21.038Z,3125.00
2023-05-06T00:27:21.111Z,3140.00
2023-05-06T00:28:21.195Z,3105.00
2023-05-06T00:29:21.221Z,3118.00
2023-05-06T00:30:21.344Z,3082.00
2023-05-06T00:31:21.438Z,3075.00
2023-05-06T00:32:21.452Z,3094.00
2023-05-06T00:33:21.530Z,3082.00
2023-05-06T00:34:21.582Z,3101.00
2023-05-06T00:35:21.644Z,3094.00
2023-05-06T00:36:21.690Z,3084.00
2023-05-06T00:37:21.754Z,3100.00
2023-05-06T00:38:21.893Z,3088.00
2023-05-06T00:39:21.876Z,3104.00
2023-05-06T00:40:21.953Z,3135.00
2023-05-06T00:41:22.057Z,3096.00
2023-05-06T00:42:22.133Z,3121.00
2023-05-06T00:43:22.107Z,3160.00
2023-05-06T00:44:22.152Z,3146.00
2023-05-06T00:45:22.202Z,3127.00
2023-05-06T00:46:22.270Z,3126.00
2023-05-06T00:47:22.338Z,3150.00
2023-05-06T00:48:22.407Z,3124.00
2023-05-06T00:49:22.464Z,3115.00
2023-05-06T00:50:22.547Z,3110.00
2023-05-06T00:51:22.612Z,3126.00
2023-05-06T00:52:22.649Z,3146.00
2023-05-06T00:53:22.728Z,3119.00
2023-05-06T00:54:22.947Z,3117.00
2023-05-06T00:55:22.869Z,3117.00
2023-05-06T00:56:22.947Z,3132.00
2023-05-06T00:57:23.041Z,3137.00
2023-05-06T00:58:23.094Z,3125.00
2023-05-06T00:59:23.225Z,3114.00
2023-05-06T01:00:23.243Z,3138.00
2023-05-06T01:01:23.328Z,3148.00
2023-05-06T01:02:26.332Z,3128.00
2023-05-06T01:03:24.441Z,3128.00
2023-05-06T01:04:23.385Z,3134.00
2023-05-06T01:05:23.427Z,3139.00
2023-05-06T01:06:23.430Z,3139.00
2023-05-06T01:07:23.418Z,3154.00
2023-05-06T01:08:23.433Z,3182.00
2023-05-06T01:09:23.473Z,3157.00
2023-05-06T01:10:23.609Z,3153.00
2023-05-06T01:11:23.522Z,3171.00
2023-05-06T01:12:23.513Z,3166.00
2023-05-06T01:13:23.501Z,3130.00
2023-05-06T01:14:23.562Z,3115.00
2023-05-06T01:15:23.563Z,3134.00
2023-05-06T01:16:23.610Z,3135.00
2023-05-06T01:17:23.634Z,3129.00
2023-05-06T01:18:23.591Z,3120.00
2023-05-06T01:19:23.640Z,3137.00
2023-05-06T01:20:23.659Z,3138.00
2023-05-06T01:21:23.725Z,3132.00
2023-05-06T01:22:23.765Z,3137.00
2023-05-06T01:23:23.810Z,3122.00
2023-05-06T01:24:23.823Z,3122.00
2023-05-06T01:25:23.915Z,3110.00
2023-05-06T01:26:24.062Z,3098.00
2023-05-06T01:27:24.046Z,3081.00
2023-05-06T01:28:24.104Z,3070.00
2023-05-06T01:29:24.173Z,3085.00
2023-05-06T01:30:24.256Z,3095.00
2023-05-06T01:31:24.331Z,3071.00
2023-05-06T01:32:24.359Z,3050.00
2023-05-06T01:33:24.424Z,3080.00
2023-05-06T01:34:24.470Z,3070.00
2023-05-06T01:35:24.562Z,3104.00
2023-05-06T01:36:24.620Z,3063.00
2023-05-06T01:37:24.685Z,3053.00
2023-05-06T01:38:24.759Z,3035.00
2023-05-06T01:39:24.788Z,3054.00
2023-05-06T01:40:24.877Z,3031.00
2023-05-06T01:41:24.872Z,3081.00
2023-05-06T01:42:25.011Z,3064.00
2023-05-06T01:43:25.003Z,3044.00
2023-05-06T01:44:25.052Z,3022.00
2023-05-06T01:45:25.122Z,3027.00
2023-05-06T01:46:25.174Z,3044.00
2023-05-06T01:47:25.235Z,3057.00
2023-05-06T01:48:25.254Z,3045.00
2023-05-06T01:49:25.302Z,3075.00
2023-05-06T01:50:25.315Z,3055.00
2023-05-06T01:51:25.389Z,3046.00
2023-05-06T01:52:25.431Z,3060.00
2023-05-06T01:53:25.494Z,3074.00
2023-05-06T01:54:25.551Z,3079.00
2023-05-06T01:55:25.558Z,3052.00
2023-05-06T01:56:25.621Z,3071.00
2023-05-06T01:57:25.685Z,3049.00
2023-05-06T01:58:25.726Z,3013.00
2023-05-06T01:59:25.801Z,3043.00
2023-05-06T02:00:25.795Z,3052.00
2023-05-06T02:01:25.917Z,3031.00
2023-05-06T02:02:26.021Z,3034.00
2023-05-06T02:03:26.074Z,3045.00
2023-05-06T02:04:26.029Z,3037.00
2023-05-06T02:05:26.057Z,3025.00
2023-05-06T02:06:26.123Z,3028.00
2023-05-06T02:07:26.155Z,3001.00
2023-05-06T02:08:26.190Z,3006.00
2023-05-06T02:09:26.280Z,3015.00
2023-05-06T02:10:26.274Z,2998.00
2023-05-06T02:11:26.341Z,2991.00
2023-05-06T02:12:26.397Z,3002.00
2023-05-06T02:13:26.444Z,2999.00
2023-05-06T02:14:26.513Z,2967.00
2023-05-06T02:15:26.521Z,2994.00
2023-05-06T02:16:26.619Z,2942.00
2023-05-06T02:17:26.647Z,2951.00
2023-05-06T02:18:26.623Z,2970.00
2023-05-06T02:19:26.674Z,2979.00
2023-05-06T02:20:26.693Z,2967.00
2023-05-06T02:21:26.766Z,2972.00
2023-05-06T02:22:26.817Z,2980.00
2023-05-06T02:23:26.857Z,2965.00
2023-05-06T02:24:26.992Z,2965.00
2023-05-06T02:25:26.997Z,2945.00
2023-05-06T02:26:27.060Z,2933.00
2023-05-06T02:27:27.138Z,2950.00
2023-05-06T02:28:27.190Z,2949.00
2023-05-06T02:29:27.247Z,2929.00
2023-05-06T02:30:27.366Z,2911.00
2023-05-06T02:31:27.416Z,2920.00
2023-05-06T02:32:27.399Z,2914.00
2023-05-06T02:33:27.411Z,2931.00
2023-05-06T02:34:27.444Z,2932.00
2023-05-06T02:35:27.498Z,2920.00
2023-05-06T02:36:27.582Z,2915.00
2023-05-06T02:37:27.581Z,2918.00
2023-05-06T02:38:27.618Z,2943.00
2023-05-06T02:39:27.661Z,2915.00
2023-05-06T02:40:27.717Z,2887.00
2023-05-06T02:41:27.757Z,2901.00
2023-05-06T02:42:27.850Z,2928.00
2023-05-06T02:43:27.829Z,2932.00
2023-05-06T02:44:27.878Z,2930.00
2023-05-06T02:45:28.021Z,2927.00
2023-05-06T02:46:27.970Z,2909.00
2023-05-06T02:47:28.013Z,2904.00
2023-05-06T02:48:28.080Z,2924.00
2023-05-06T02:49:28.155Z,2935.00
2023-05-06T02:50:28.202Z,2916.00
2023-05-06T02:51:28.294Z,2928.00
2023-05-06T02:52:28.325Z,2918.00
2023-05-06T02:53:28.411Z,2910.00
2023-05-06T02:54:28.472Z,2937.00
2023-05-06T02:55:28.524Z,2936.00
2023-05-06T02:56:28.623Z,2918.00
2023-05-06T02:57:28.707Z,2945.00
2023-05-06T02:58:28.691Z,2932.00
2023-05-06T02:59:28.745Z,2944.00
2023-05-06T03:00:28.877Z,2930.00
2023-05-06T03:01:28.997Z,2954.00
2023-05-06T03:02:29.086Z,2951.00
2023-05-06T03:03:29.017Z,2938.00
2023-05-06T03:04:29.091Z,2946.00
2023-05-06T03:05:29.163Z,2940.00
2023-05-06T03:06:29.187Z,2939.00
2023-05-06T03:07:29.266Z,2941.00
2023-05-06T03:08:29.350Z,2940.00
2023-05-06T03:09:29.383Z,2940.00
2023-05-06T03:10:29.443Z,2942.00
2023-05-06T03:11:29.471Z,2933.00
2023-05-06T03:12:29.538Z,2930.00
2023-05-06T03:13:29.606Z,2944.00
2023-05-06T03:14:29.643Z,2944.00
2023-05-06T03:15:29.716Z,2922.00
2023-05-06T03:16:29.818Z,2928.00
2023-05-06T03:17:29.836Z,2913.00
2023-05-06T03:18:29.922Z,2905.00
2023-05-06T03:19:29.959Z,2901.00
2023-05-06T03:20:29.993Z,2899.00
2023-05-06T03:21:30.178Z,2912.00
2023-05-06T03:22:30.134Z,2908.00
2023-05-06T03:23:30.173Z,2895.00
2023-05-06T03:24:30.244Z,2883.00
2023-05-06T03:25:30.275Z,2902.00
2023-05-06T03:26:30.334Z,2892.00
2023-05-06T03:27:30.340Z,2927.00
2023-05-06T03:28:30.428Z,2912.00
2023-05-06T03:29:30.510Z,2904.00
2023-05-06T03:30:30.549Z,2899.00
2023-05-06T03:31:30.704Z,2891.00
2023-05-06T03:32:30.712Z,2877.00
2023-05-06T03:33:30.671Z,2887.00
2023-05-06T03:34:30.822Z,2890.00
2023-05-06T03:35:30.833Z,2881.00
2023-05-06T03:36:30.869Z,2874.00
2023-05-06T03:37:30.937Z,2877.00
2023-05-06T03:38:31.013Z,2870.00
2023-05-06T03:39:31.044Z,2867.00
2023-05-06T03:40:31.117Z,2841.00
2023-05-06T03:41:31.144Z,2855.00
2023-05-06T03:42:31.224Z,2865.00
2023-05-06T03:43:31.263Z,2848.00
2023-05-06T03:44:31.306Z,2840.00
2023-05-06T03:45:31.408Z,2832.00
2023-05-06T03:46:31.471Z,2817.00
2023-05-06T03:47:31.559Z,2810.00
2023-05-06T03:48:31.560Z,2807.00
2023-05-06T03:49:31.603Z,2808.00
2023-05-06T03:50:31.731Z,2790.00
2023-05-06T03:51:31.701Z,2824.00
2023-05-06T03:52:31.747Z,2793.00
2023-05-06T03:53:31.792Z,2780.00
2023-05-06T03:54:31.801Z,2782.00
2023-05-06T03:55:31.883Z,2796.00
2023-05-06T03:56:31.897Z,2790.00
2023-05-06T03:57:31.941Z,2773.00
2023-05-06T03:58:31.998Z,2751.00
2023-05-06T03:59:32.022Z,2763.00
2023-05-06T04:00:32.050Z,2756.00
2023-05-06T04:01:32.132Z,2752.00
2023-05-06T04:02:32.266Z,2761.00
2023-05-06T04:03:32.387Z,2772.00
2023-05-06T04:04:32.316Z,2763.00
2023-05-06T04:05:32.368Z,2760.00
2023-05-06T04:06:32.520Z,2760.00
2023-05-06T04:07:32.484Z,2758.00
2023-05-06T04:08:32.491Z,2748.00
2023-05-06T04:09:32.585Z,2717.00
2023-05-06T04:10:32.630Z,2692.00
2023-05-06T04:11:32.675Z,2695.00
2023-05-06T04:12:32.742Z,2700.00
2023-05-06T04:13:32.839Z,2669.00
2023-05-06T04:14:32.852Z,2684.00
2023-05-06T04:15:32.933Z,2677.00
2023-05-06T04:16:33.018Z,2667.00
2023-05-06T04:17:33.078Z,2677.00
2023-05-06T04:18:33.100Z,2694.00
2023-05-06T04:19:33.133Z,2660.00
2023-05-06T04:20:33.191Z,2668.00
2023-05-06T04:21:33.224Z,2669.00
2023-05-06T04:22:33.448Z,2665.00
2023-05-06T04:23:33.300Z,2678.00
2023-05-06T04:24:33.346Z,2671.00
2023-05-06T04:25:33.382Z,2680.00
2023-05-06T04:26:33.406Z,2676.00
2023-05-06T04:27:33.468Z,2681.00
2023-05-06T04:28:33.538Z,2680.00
2023-05-06T04:29:33.502Z,2703.00
2023-05-06T04:30:33.573Z,2700.00
2023-05-06T04:31:33.647Z,2694.00
2023-05-06T04:32:33.677Z,2699.00
2023-05-06T04:33:33.752Z,2713.00
2023-05-06T04:34:33.715Z,2697.00
2023-05-06T04:35:33.777Z,2695.00
2023-05-06T04:36:33.773Z,2707.00
2023-05-06T04:37:33.834Z,2701.00
2023-05-06T04:38:33.841Z,2711.00
2023-05-06T04:39:33.895Z,2714.00
2023-05-06T04:40:33.935Z,2731.00
2023-05-06T04:41:33.984Z,2720.00
2023-05-06T04:42:34.013Z,2708.00
2023-05-06T04:43:34.226Z,2685.00
2023-05-06T04:44:34.405Z,2701.00
2023-05-06T04:45:34.367Z,2728.00
2023-05-06T04:46:34.190Z,2729.00
2023-05-06T04:47:34.278Z,2741.00
2023-05-06T04:48:34.267Z,2714.00
2023-05-06T04:49:34.296Z,2710.00
2023-05-06T04:50:34.364Z,2699.00
2023-05-06T04:51:34.347Z,2695.00
2023-05-06T04:52:34.429Z,2684.00
2023-05-06T04:53:34.440Z,2685.00
2023-05-06T04:54:34.556Z,2673.00
2023-05-06T04:55:34.536Z,2669.00
2023-05-06T04:56:34.540Z,2667.00
2023-05-06T04:57:34.569Z,2674.00
2023-05-06T04:58:34.648Z,2664.00
2023-05-06T04:59:34.683Z,2667.00
2023-05-06T05:00:34.717Z,2657.00
2023-05-06T05:01:34.809Z,2671.00
2023-05-06T05:02:34.916Z,2669.00
2023-05-06T05:03:34.959Z,2687.00
2023-05-06T05:04:34.887Z,2676.00
2023-05-06T05:05:34.942Z,2654.00
2023-05-06T05:06:34.974Z,2664.00
2023-05-06T05:07:34.977Z,2656.00
2023-05-06T05:08:35.002Z,2660.00
2023-05-06T05:09:35.064Z,2659.00
2023-05-06T05:10:35.164Z,2644.00
2023-05-06T05:11:35.130Z,2634.00
2023-05-06T05:12:35.214Z,2651.00
2023-05-06T05:13:35.192Z,2651.00
2023-05-06T05:14:35.210Z,2638.00
2023-05-06T05:15:35.276Z,2638.00
2023-05-06T05:16:35.329Z,2644.00
2023-05-06T05:17:35.375Z,2638.00
2023-05-06T05:18:35.404Z,2614.00
2023-05-06T05:19:35.435Z,2600.00
2023-05-06T05:20:35.478Z,2623.00
2023-05-06T05:21:35.548Z,2618.00
2023-05-06T05:22:35.565Z,2623.00
2023-05-06T05:23:35.582Z,2632.00
2023-05-06T05:24:35.639Z,2622.00
2023-05-06T05:25:35.667Z,2621.00
2023-05-06T05:26:35.785Z,2631.00
2023-05-06T05:27:35.758Z,2609.00
2023-05-06T05:28:35.810Z,2631.00
2023-05-06T05:29:35.829Z,2629.00
2023-05-06T05:30:35.889Z,2620.00
2023-05-06T05:31:35.963Z,2627.00
2023-05-06T05:32:35.986Z,2608.00
2023-05-06T05:33:36.118Z,2627.00
2023-05-06T05:34:36.058Z,2611.00
2023-05-06T05:35:36.161Z,2597.00
2023-05-06T05:36:36.185Z,2608.00
2023-05-06T05:37:36.215Z,2586.00
2023-05-06T05:38:36.232Z,2593.00
2023-05-06T05:39:36.288Z,2572.00
2023-05-06T05:40:36.333Z,2583.00
2023-05-06T05:41:36.368Z,2548.00
2023-05-06T05:42:36.578Z,2539.00
2023-05-06T05:43:36.480Z,2545.00
2023-05-06T05:44:36.491Z,2558.00
2023-05-06T05:45:36.560Z,2537.00
2023-05-06T05:46:36.682Z,2520.00
2023-05-06T05:47:36.670Z,2541.00
2023-05-06T05:48:36.669Z,2514.00
2023-05-06T05:49:36.753Z,2493.00
2023-05-06T05:50:36.762Z,2516.00
2023-05-06T05:51:36.812Z,2506.00
2023-05-06T05:52:36.826Z,2500.00
2023-05-06T05:53:36.866Z,2505.00
2023-05-06T05:54:36.891Z,2497.00
2023-05-06T05:55:36.930Z,2484.00
2023-05-06T05:56:36.992Z,2464.00
2023-05-06T05:57:37.059Z,2457.00
2023-05-06T05:58:37.270Z,2472.00
2023-05-06T05:59:37.125Z,2479.00
2023-05-06T06:00:37.107Z,2480.00
2023-05-06T06:01:37.160Z,2487.00
2023-05-06T06:02:37.224Z,2467.00
2023-05-06T06:03:37.376Z,2467.00
2023-05-06T06:04:37.413Z,2453.00
2023-05-06T06:05:37.354Z,2479.00
2023-05-06T06:06:37.384Z,2462.00
2023-05-06T06:07:37.479Z,2453.00
2023-05-06T06:08:37.537Z,2471.00
2023-05-06T06:09:37.574Z,2461.00
2023-05-06T06:10:37.656Z,2450.00
2023-05-06T06:11:37.751Z,2427.00
2023-05-06T06:12:37.812Z,2415.00
2023-05-06T06:13:37.865Z,2390.00
2023-05-06T06:14:37.920Z,2411.00
2023-05-06T06:15:38.007Z,2414.00
2023-05-06T06:16:38.266Z,2378.00
2023-05-06T06:17:38.263Z,2400.00
2023-05-06T06:18:38.189Z,2403.00
2023-05-06T06:19:38.217Z,2394.00
2023-05-06T06:20:38.282Z,2392.00
2023-05-06T06:21:38.333Z,2441.00
2023-05-06T06:22:38.451Z,2392.00
2023-05-06T06:23:38.458Z,2404.00
2023-05-06T06:24:38.533Z,2395.00
2023-05-06T06:25:38.546Z,2380.00
2023-05-06T06:26:38.618Z,2364.00
2023-05-06T06:27:38.694Z,2402.00
2023-05-06T06:28:38.837Z,2389.00
2023-05-06T06:29:38.802Z,2391.00
2023-05-06T06:30:38.908Z,2427.00
2023-05-06T06:31:40.430Z,2434.00
2023-05-06T06:32:38.988Z,2368.00
2023-05-06T06:33:39.032Z,2385.00
2023-05-06T06:34:39.083Z,2381.00
2023-05-06T06:35:39.181Z,2388.00
2023-05-06T06:36:39.242Z,2398.00
2023-05-06T06:37:39.327Z,2396.00
2023-05-06T06:38:39.373Z,2403.00
2023-05-06T06:39:39.472Z,2404.00
2023-05-06T06:40:39.531Z,2389.00
2023-05-06T06:41:39.638Z,2388.00
2023-05-06T06:42:39.613Z,2388.00
2023-05-06T06:43:39.681Z,2404.00
2023-05-06T06:44:39.674Z,2403.00
2023-05-06T06:45:39.758Z,2391.00
2023-05-06T06:46:39.833Z,2415.00
2023-05-06T06:47:39.848Z,2401.00
2023-05-06T06:48:39.842Z,2380.00
2023-05-06T06:49:39.895Z,2397.00
2023-05-06T06:50:39.956Z,2389.00
2023-05-06T06:51:40.043Z,2400.00
2023-05-06T06:52:40.110Z,2370.00
2023-05-06T06:53:40.189Z,2371.00
2023-05-06T06:54:40.191Z,2367.00
2023-05-06T06:55:40.240Z,2348.00
2023-05-06T06:56:40.362Z,2349.00
2023-05-06T06:57:40.410Z,2350.00
2023-05-06T06:58:40.489Z,2354.00
2023-05-06T06:59:40.492Z,2364.00
2023-05-06T07:00:40.586Z,2378.00
2023-05-06T07:01:40.685Z,2355.00
2023-05-06T07:02:40.734Z,2361.00
2023-05-06T07:03:40.704Z,2315.00
2023-05-06T07:04:40.845Z,2314.00
2023-05-06T07:05:40.818Z,2325.00
2023-05-06T07:06:40.844Z,2334.00
2023-05-06T07:07:40.866Z,2286.00
2023-05-06T07:08:40.889Z,2286.00
2023-05-06T07:09:40.944Z,2273.00
2023-05-06T07:10:41.034Z,2273.00
2023-05-06T07:11:41.083Z,2235.00
2023-05-06T07:12:41.175Z,2277.00
2023-05-06T07:13:41.207Z,2226.00
2023-05-06T07:14:41.238Z,2214.00
2023-05-06T07:15:41.300Z,2237.00
2023-05-06T07:16:41.874Z,2259.00
2023-05-06T07:17:41.430Z,2282.00
2023-05-06T07:18:41.463Z,2265.00
2023-05-06T07:19:41.466Z,2252.00
2023-05-06T07:20:41.530Z,2214.00
2023-05-06T07:21:41.595Z,2218.00
2023-05-06T07:22:41.752Z,2211.00
2023-05-06T07:23:41.673Z,2199.00
2023-05-06T07:24:41.766Z,2194.00
2023-05-06T07:25:41.824Z,2229.00
2023-05-06T07:26:41.892Z,2230.00
2023-05-06T07:27:41.935Z,2204.00
2023-05-06T07:28:41.984Z,2185.00
2023-05-06T07:29:42.018Z,2187.00
2023-05-06T07:30:42.129Z,2194.00
2023-05-06T07:31:42.179Z,2152.00
2023-05-06T07:32:42.208Z,2164.00
2023-05-06T07:33:42.242Z,2148.00
2023-05-06T07:34:42.573Z,2093.00
2023-05-06T07:35:42.402Z,2108.00
2023-05-06T07:36:42.481Z,2138.00
2023-05-06T07:37:42.519Z,2125.00
2023-05-06T07:38:42.569Z,2091.00
2023-05-06T07:39:42.652Z,2127.00
2023-05-06T07:40:42.729Z,2099.00
2023-05-06T07:41:42.788Z,2098.00
2023-05-06T07:42:43.374Z,2154.00
2023-05-06T07:43:42.918Z,2145.00
2023-05-06T07:44:42.993Z,2159.00
2023-05-06T07:45:43.037Z,2103.00
2023-05-06T07:46:43.249Z,2144.00
2023-05-06T07:47:43.343Z,2162.00
2023-05-06T07:48:43.207Z,2112.00
2023-05-06T07:49:43.262Z,2161.00
2023-05-06T07:50:43.296Z,2170.00
2023-05-06T07:51:43.407Z,2130.00
2023-05-06T07:52:43.426Z,2164.00
2023-05-06T07:53:43.483Z,2145.00
2023-05-06T07:54:43.541Z,2179.00
2023-05-06T07:55:43.593Z,2144.00
2023-05-06T07:56:43.657Z,2189.00
2023-05-06T07:57:43.714Z,2149.00
2023-05-06T07:58:43.789Z,2179.00
2023-05-06T07:59:43.827Z,2162.00
2023-05-06T08:00:43.923Z,2192.00
2023-05-06T08:01:43.995Z,2231.00
2023-05-06T08:02:44.332Z,2203.00
2023-05-06T08:03:44.320Z,2141.00
2023-05-06T08:04:44.269Z,2145.00
2023-05-06T08:05:44.249Z,2187.00
2023-05-06T08:06:44.361Z,2185.00
2023-05-06T08:07:44.386Z,2213.00
2023-05-06T08:08:44.428Z,2232.00
2023-05-06T08:09:44.487Z,2187.00
2023-05-06T08:10:44.583Z,2195.00
2023-05-06T08:11:44.635Z,2156.00
2023-05-06T08:12:44.738Z,2131.00
2023-05-06T08:13:44.771Z,2129.00
2023-05-06T08:14:44.790Z,2123.00
2023-05-06T08:15:44.896Z,2141.00
2023-05-06T08:16:45.066Z,2177.00
2023-05-06T08:17:45.138Z,2142.00
2023-05-06T08:18:45.074Z,2110.00
2023-05-06T08:19:45.144Z,2091.00
2023-05-06T08:20:45.174Z,2131.00
2023-05-06T08:21:45.278Z,2160.00
2023-05-06T08:22:45.439Z,2108.00
2023-05-06T08:23:45.379Z,2149.00
2023-05-06T08:24:45.429Z,2126.00
2023-05-06T08:25:45.503Z,2072.00
2023-05-06T08:26:45.571Z,2130.00
2023-05-06T08:27:45.602Z,2152.00
2023-05-06T08:28:45.681Z,2100.00
2023-05-06T08:29:45.755Z,2007.00
2023-05-06T08:30:45.800Z,2035.00
2023-05-06T08:31:45.951Z,2025.00
2023-05-06T08:32:45.974Z,2077.00
2023-05-06T08:33:46.002Z,2044.00
2023-05-06T08:34:46.063Z,2102.00
2023-05-06T08:35:46.116Z,2088.00
2023-05-06T08:36:46.183Z,2077.00
2023-05-06T08:37:46.274Z,2019.00
2023-05-06T08:38:46.367Z,2008.00
2023-05-06T08:39:46.375Z,2031.00
2023-05-06T08:40:46.435Z,2043.00
2023-05-06T08:41:46.496Z,2075.00
2023-05-06T08:42:46.577Z,2096.00
2023-05-06T08:43:46.606Z,2073.00
2023-05-06T08:44:46.644Z,2077.00
2023-05-06T08:45:46.779Z,2054.00
2023-05-06T08:46:46.784Z,2016.00
2023-05-06T08:47:46.850Z,2014.00
2023-05-06T08:48:46.888Z,2022.00
2023-05-06T08:49:46.933Z,2026.00
2023-05-06T08:50:47.009Z,2043.00
2023-05-06T08:51:47.052Z,2022.00
2023-05-06T08:52:47.081Z,2014.00
2023-05-06T08:53:47.150Z,1969.00
2023-05-06T08:54:47.238Z,1980.00
2023-05-06T08:55:47.248Z,1971.00
2023-05-06T08:56:47.319Z,1948.00
2023-05-06T08:57:47.370Z,1938.00
2023-05-06T08:58:47.434Z,1973.00
2023-05-06T08:59:47.498Z,1992.00
2023-05-06T09:00:47.591Z,2037.00
2023-05-06T09:01:47.668Z,2036.00
2023-05-06T09:02:47.782Z,2063.00
2023-05-06T09:03:47.771Z,2009.00
2023-05-06T09:04:47.820Z,2038.00
2023-05-06T09:05:47.846Z,2075.00
2023-05-06T09:06:47.936Z,1969.00
2023-05-06T09:07:47.995Z,1996.00
2023-05-06T09:08:48.081Z,2055.00
2023-05-06T09:09:48.109Z,2079.00
2023-05-06T09:10:48.210Z,2041.00
2023-05-06T09:11:48.239Z,2109.00
2023-05-06T09:12:48.307Z,2030.00
2023-05-06T09:13:48.361Z,2008.00
2023-05-06T09:14:48.414Z,2057.00
2023-05-06T09:15:48.457Z,2024.00
2023-05-06T09:16:48.588Z,1959.00
2023-05-06T09:17:48.618Z,1995.00
2023-05-06T09:18:48.661Z,2002.00
2023-05-06T09:19:48.748Z,2024.00
2023-05-06T09:20:48.805Z,1988.00
2023-05-06T09:21:48.859Z,2002.00
2023-05-06T09:22:48.941Z,2047.00
2023-05-06T09:23:48.984Z,2059.00
2023-05-06T09:24:49.073Z,2042.00
2023-05-06T09:25:49.159Z,2035.00
2023-05-06T09:26:49.321Z,2012.00
2023-05-06T09:27:49.341Z,1998.00
2023-05-06T09:28:49.368Z,1999.00
2023-05-06T09:29:49.427Z,1992.00
2023-05-06T09:30:49.469Z,1952.00
2023-05-06T09:31:49.508Z,2026.00
2023-05-06T09:32:49.615Z,1994.00
2023-05-06T09:33:49.634Z,2020.00
2023-05-06T09:34:49.717Z,1999.00
2023-05-06T09:35:49.781Z,2026.00
2023-05-06T09:36:49.842Z,1992.00
2023-05-06T09:37:49.888Z,2069.00
2023-05-06T09:38:49.957Z,2039.00
2023-05-06T09:39:50.056Z,2027.00
2023-05-06T09:40:50.106Z,2020.00
2023-05-06T09:41:50.173Z,2033.00
2023-05-06T09:42:50.469Z,2005.00
2023-05-06T09:43:50.261Z,2051.00
2023-05-06T09:44:50.342Z,2028.00
2023-05-06T09:45:50.388Z,2056.00
2023-05-06T09:46:50.473Z,2083.00
2023-05-06T09:47:50.522Z,2105.00
2023-05-06T09:48:50.569Z,2060.00
2023-05-06T09:49:50.650Z,2043.00
2023-05-06T09:50:50.667Z,2003.00
2023-05-06T09:51:50.727Z,2079.00
2023-05-06T09:52:50.792Z,2095.00
2023-05-06T09:53:50.821Z,2023.00
2023-05-06T09:54:50.886Z,2087.00
2023-05-06T09:55:50.940Z,2048.00
2023-05-06T09:56:50.984Z,2043.00
2023-05-06T09:57:51.048Z,2055.00
2023-05-06T09:58:51.218Z,2030.00
2023-05-06T09:59:51.151Z,1976.00
2023-05-06T10:00:51.204Z,2044.00
2023-05-06T10:01:51.309Z,2043.00
2023-05-06T10:02:51.473Z,2073.00
2023-05-06T10:03:51.542Z,2035.00
2023-05-06T10:04:52.059Z,2085.00
2023-05-06T10:05:51.531Z,2121.00
2023-05-06T10:06:51.559Z,2059.00
2023-05-06T10:07:51.659Z,1997.00
2023-05-06T10:08:51.720Z,2005.00
2023-05-06T10:09:51.766Z,2008.00
2023-05-06T10:10:51.814Z,1966.00
2023-05-06T10:11:51.938Z,1978.00
2023-05-06T10:12:52.011Z,1995.00
2023-05-06T10:13:52.017Z,2006.00
2023-05-06T10:14:52.256Z,2000.00
2023-05-06T10:15:52.171Z,2020.00
2023-05-06T10:16:52.258Z,1991.00
2023-05-06T10:17:52.307Z,2064.00
2023-05-06T10:18:52.301Z,2013.00
2023-05-06T10:19:52.399Z,1942.00
2023-05-06T10:20:52.452Z,1969.00
2023-05-06T10:21:52.515Z,1967.00
2023-05-06T10:22:52.552Z,1958.00
2023-05-06T10:23:52.607Z,1931.00
2023-05-06T10:24:52.664Z,2013.00
2023-05-06T10:25:52.712Z,1941.00
2023-05-06T10:26:52.772Z,1911.00
2023-05-06T10:27:52.847Z,1959.00
2023-05-06T10:28:52.877Z,1958.00
2023-05-06T10:29:52.966Z,1940.00
2023-05-06T10:30:53.035Z,1934.00
2023-05-06T10:31:53.145Z,1916.00
2023-05-06T10:32:53.298Z,1836.00
2023-05-06T10:33:53.201Z,1813.00
2023-05-06T10:34:53.208Z,1845.00
2023-05-06T10:35:53.276Z,1777.00
2023-05-06T10:36:53.333Z,1836.00
2023-05-06T10:37:53.385Z,1820.00
2023-05-06T10:38:53.439Z,1824.00
2023-05-06T10:39:53.485Z,1792.00
2023-05-06T10:40:53.564Z,1783.00
2023-05-06T10:41:53.615Z,1769.00
2023-05-06T10:42:53.664Z,1807.00
2023-05-06T10:43:53.669Z,1807.00
2023-05-06T10:44:53.730Z,1775.00
2023-05-06T10:45:53.874Z,1789.00
2023-05-06T10:46:53.885Z,1797.00
2023-05-06T10:47:53.978Z,1779.00
2023-05-06T10:48:53.989Z,1766.00
2023-05-06T10:49:54.029Z,1744.00
2023-05-06T10:50:54.087Z,1847.00
2023-05-06T10:51:54.138Z,1852.00
2023-05-06T10:52:54.183Z,1892.00
2023-05-06T10:53:54.246Z,1949.00
2023-05-06T10:54:54.312Z,1796.00
2023-05-06T10:55:54.395Z,1723.00
2023-05-06T10:56:54.422Z,1720.00
2023-05-06T10:57:54.509Z,1707.00
2023-05-06T10:58:54.564Z,1729.00
2023-05-06T10:59:54.595Z,1757.00
2023-05-06T11:00:54.740Z,1716.00
2023-05-06T11:01:54.757Z,1724.00
2023-05-06T11:02:55.001Z,1706.00
2023-05-06T11:03:54.827Z,1713.00
2023-05-06T11:04:54.889Z,1697.00
2023-05-06T11:05:54.975Z,1662.00
2023-05-06T11:06:55.068Z,1667.00
2023-05-06T11:07:55.104Z,1640.00
2023-05-06T11:08:55.124Z,1699.00
2023-05-06T11:09:55.213Z,1641.00
2023-05-06T11:10:55.247Z,1675.00
2023-05-06T11:11:55.328Z,1656.00
2023-05-06T11:12:55.477Z,1687.00
2023-05-06T11:13:55.460Z,1562.00
2023-05-06T11:14:55.513Z,1552.00
2023-05-06T11:15:55.608Z,1563.00
2023-05-06T11:16:55.717Z,1564.00
2023-05-06T11:17:55.844Z,1612.00
2023-05-06T11:18:55.850Z,1656.00
2023-05-06T11:19:55.858Z,1701.00
2023-05-06T11:20:55.891Z,1755.00
2023-05-06T11:21:55.905Z,1675.00
2023-05-06T11:22:55.986Z,1715.00
2023-05-06T11:23:56.034Z,1793.00
2023-05-06T11:24:56.105Z,1755.00
2023-05-06T11:25:56.132Z,1717.00
2023-05-06T11:26:56.218Z,1648.00
2023-05-06T11:27:56.220Z,1776.00
2023-05-06T11:28:56.299Z,1743.00
2023-05-06T11:29:56.332Z,1753.00
2023-05-06T11:30:56.417Z,1761.00
2023-05-06T11:31:56.454Z,1725.00
2023-05-06T11:32:56.575Z,1737.00
2023-05-06T11:33:56.593Z,1753.00
2023-05-06T11:34:56.668Z,1716.00
2023-05-06T11:35:56.677Z,1735.00
2023-05-06T11:36:56.791Z,1720.00
2023-05-06T11:37:56.861Z,1749.00
2023-05-06T11:38:56.855Z,1765.00
2023-05-06T11:39:56.938Z,1758.00
2023-05-06T11:40:57.001Z,1770.00
2023-05-06T11:41:57.045Z,1757.00
2023-05-06T11:42:57.089Z,1731.00
2023-05-06T11:43:57.179Z,1712.00
2023-05-06T11:44:57.207Z,1729.00
2023-05-06T11:45:57.248Z,1746.00
2023-05-06T11:46:57.308Z,1741.00
2023-05-06T11:47:57.325Z,1659.00
2023-05-06T11:48:57.404Z,1630.00
2023-05-06T11:49:57.441Z,1673.00
2023-05-06T11:50:57.636Z,1647.00
2023-05-06T11:51:57.522Z,1545.00
2023-05-06T11:52:57.557Z,1517.00
2023-05-06T11:53:57.646Z,1513.00
2023-05-06T11:54:57.675Z,1556.00
2023-05-06T11:55:57.740Z,1547.00
2023-05-06T11:56:57.825Z,1523.00
2023-05-06T11:57:57.841Z,1525.00
2023-05-06T11:58:57.909Z,1442.00
2023-05-06T11:59:57.993Z,1590.00
2023-05-06T12:00:58.018Z,1497.00
2023-05-06T12:01:58.096Z,1388.00
2023-05-06T12:02:58.144Z,1342.00
2023-05-06T12:03:58.314Z,1366.00
2023-05-06T12:04:58.338Z,1448.00
2023-05-06T12:05:58.251Z,1373.00